createdAt,value
2018-03-17T00:00:22.776Z,12.90
2018-03-17T00:01:22.647Z,12.89
2018-03-17T00:03:17.949Z,12.64
2018-03-17T00:04:17.866Z,12.56
2018-03-17T00:06:13.149Z,12.60
2018-03-17T00:07:13.014Z,12.57
2018-03-17T00:09:09.108Z,12.53
2018-03-17T00:10:09.008Z,12.49
2018-03-17T00:12:04.303Z,12.57
2018-03-17T00:13:04.202Z,12.56
2018-03-17T00:14:59.478Z,12.56
2018-03-17T00:15:59.353Z,12.54
2018-03-17T00:17:54.623Z,12.64
2018-03-17T00:18:54.571Z,12.57
2018-03-17T00:20:49.803Z,12.53
2018-03-17T00:21:49.707Z,12.65
2018-03-17T00:23:44.972Z,12.53
2018-03-17T00:24:44.923Z,12.42
2018-03-17T00:26:40.166Z,12.37
2018-03-17T00:27:40.028Z,12.38
2018-03-17T00:29:35.335Z,12.37
2018-03-17T00:30:35.212Z,12.32
2018-03-17T00:32:30.488Z,12.28
2018-03-17T00:33:30.418Z,12.39
2018-03-17T00:35:25.716Z,12.29
2018-03-17T00:36:25.599Z,12.28
2018-03-17T00:38:20.826Z,12.23
2018-03-17T00:39:20.756Z,12.23
2018-03-17T00:41:16.156Z,12.24
2018-03-17T00:42:15.929Z,12.32
2018-03-17T00:44:11.265Z,12.35
2018-03-17T00:45:11.151Z,12.28
2018-03-17T00:47:07.281Z,12.38
2018-03-17T00:48:07.177Z,12.37
2018-03-17T00:50:02.436Z,12.31
2018-03-17T00:51:02.364Z,12.34
2018-03-17T00:52:57.632Z,12.34
2018-03-17T00:53:57.501Z,12.29
2018-03-17T00:55:53.665Z,12.39
2018-03-17T00:56:53.547Z,12.39
2018-03-17T00:58:49.678Z,12.37
2018-03-17T00:59:49.571Z,12.45
2018-03-17T01:01:44.803Z,12.49
2018-03-17T01:02:44.738Z,12.29
2018-03-17T09:53:40.690Z,12.78
2018-03-17T09:54:40.584Z,12.82
2018-03-17T09:55:40.503Z,12.79
2018-03-17T09:56:40.377Z,12.92
2018-03-17T09:58:35.643Z,12.89
2018-03-17T09:59:35.557Z,12.96
2018-03-17T10:01:30.849Z,13.00
2018-03-17T10:02:30.774Z,12.89
2018-03-17T10:04:26.025Z,12.85
2018-03-17T10:05:25.909Z,12.79
2018-03-17T10:07:22.681Z,12.71
2018-03-17T10:08:22.608Z,12.68
2018-03-17T10:10:17.890Z,12.70
2018-03-17T10:11:17.790Z,12.71
2018-03-17T10:13:13.095Z,12.72
2018-03-17T10:14:12.945Z,12.67
2018-03-17T10:16:08.244Z,12.67
2018-03-17T10:17:08.113Z,12.64
2018-03-17T10:18:08.047Z,12.64
2018-03-17T10:19:07.988Z,12.67
2018-03-17T10:20:07.918Z,12.71
2018-03-17T10:21:07.833Z,12.65
2018-03-17T10:22:07.772Z,12.77
2018-03-17T10:23:07.706Z,12.71
2018-03-17T10:24:07.633Z,12.79
2018-03-17T10:25:07.570Z,12.75
2018-03-17T10:26:07.479Z,12.79
2018-03-17T10:27:07.418Z,12.86
2018-03-17T10:28:07.332Z,12.83
2018-03-17T10:29:07.263Z,12.86
2018-03-17T10:30:07.187Z,12.83
2018-03-17T10:31:07.117Z,12.85
2018-03-17T10:32:07.066Z,12.89
2018-03-17T10:33:06.978Z,12.87
2018-03-17T10:34:06.931Z,12.82
2018-03-17T10:35:06.840Z,12.74
2018-03-17T10:36:06.787Z,12.72
2018-03-17T10:37:06.701Z,12.75
2018-03-17T10:38:06.669Z,12.77
2018-03-17T10:39:06.551Z,12.68
2018-03-17T10:40:06.483Z,12.67
2018-03-17T10:41:06.413Z,12.62
2018-03-17T10:42:06.357Z,12.59
2018-03-17T10:43:06.274Z,12.56
2018-03-17T10:44:06.202Z,12.64
2018-03-17T10:45:06.127Z,12.62
2018-03-17T10:46:06.060Z,12.62
2018-03-17T10:47:06.018Z,12.67
2018-03-17T10:48:05.921Z,12.70
2018-03-17T10:49:05.835Z,12.74
2018-03-17T10:50:05.782Z,12.72
2018-03-17T10:51:05.721Z,12.71
2018-03-17T10:52:05.647Z,12.75
2018-03-17T10:53:05.563Z,12.74
2018-03-17T10:54:05.513Z,12.70
2018-03-17T10:55:05.415Z,12.78
2018-03-17T10:56:05.374Z,12.86
2018-03-17T10:57:05.289Z,12.85
2018-03-17T10:58:05.216Z,12.83
2018-03-17T10:59:05.146Z,12.74
2018-03-17T11:00:05.087Z,12.71
2018-03-17T11:01:05.034Z,12.75
2018-03-17T11:02:04.932Z,12.67
2018-03-17T11:03:04.859Z,12.64
2018-03-17T11:04:04.806Z,12.65
2018-03-17T11:05:04.718Z,12.65
2018-03-17T11:06:04.712Z,12.62
2018-03-17T11:07:04.589Z,12.62
2018-03-17T11:08:04.491Z,12.64
2018-03-17T11:09:04.434Z,12.49
2018-03-17T11:10:04.362Z,12.54
2018-03-17T11:11:04.290Z,12.50
2018-03-17T11:12:04.206Z,12.50
2018-03-17T11:13:04.128Z,12.50
2018-03-17T11:14:04.059Z,12.39
2018-03-17T11:15:04.006Z,12.42
2018-03-17T11:16:03.919Z,12.56
2018-03-17T11:17:03.880Z,12.52
2018-03-17T11:18:03.796Z,12.54
2018-03-17T11:19:03.710Z,12.50
2018-03-17T11:20:03.639Z,12.52
2018-03-17T11:21:03.588Z,12.52
2018-03-17T11:22:03.495Z,12.54
2018-03-17T11:23:03.450Z,12.60
2018-03-17T11:24:03.354Z,12.54
2018-03-17T11:25:03.345Z,12.57
2018-03-17T11:26:03.230Z,12.67
2018-03-17T11:27:03.143Z,12.54
2018-03-17T11:28:03.075Z,12.53
2018-03-17T11:29:03.044Z,12.52
2018-03-17T11:30:02.931Z,12.53
2018-03-17T11:31:02.870Z,12.57
2018-03-17T11:32:02.792Z,12.50
2018-03-17T11:33:02.740Z,12.52
2018-03-17T11:34:02.647Z,12.57
2018-03-17T11:35:02.575Z,12.54
2018-03-17T11:36:02.502Z,12.39
2018-03-17T11:37:02.442Z,12.37
2018-03-17T11:38:02.379Z,12.32
2018-03-17T11:39:02.301Z,12.27
2018-03-17T11:40:02.240Z,12.17
2018-03-17T11:41:02.158Z,12.24
2018-03-17T11:42:02.099Z,12.27
2018-03-17T11:43:02.020Z,12.23
2018-03-17T11:44:01.962Z,12.20
2018-03-17T11:45:01.874Z,12.27
2018-03-17T11:46:01.822Z,12.28
2018-03-17T11:47:01.754Z,12.21
2018-03-17T11:48:01.718Z,12.14
2018-03-17T11:49:01.581Z,12.17
2018-03-17T11:50:01.522Z,12.21
2018-03-17T11:51:01.455Z,12.23
2018-03-17T11:52:01.364Z,12.21
2018-03-17T11:53:01.322Z,12.29
2018-03-17T11:54:01.220Z,12.29
2018-03-17T11:55:01.188Z,12.39
2018-03-17T11:56:01.099Z,12.37
2018-03-17T11:57:01.032Z,12.35
2018-03-17T11:58:00.958Z,12.39
2018-03-17T11:59:00.877Z,12.50
2018-03-17T12:00:00.797Z,12.49
2018-03-17T12:01:00.723Z,12.49
2018-03-17T12:02:00.657Z,12.54
2018-03-17T12:03:00.578Z,12.45
2018-03-17T12:04:00.513Z,12.42
2018-03-17T12:05:00.496Z,12.39
2018-03-17T12:06:00.386Z,12.46
2018-03-17T12:07:00.296Z,12.49
2018-03-17T12:08:00.233Z,12.49
2018-03-17T12:09:00.159Z,12.46
2018-03-17T12:10:00.108Z,12.46
2018-03-17T12:11:00.017Z,12.41
2018-03-17T12:11:59.942Z,12.56
2018-03-17T12:12:59.880Z,12.59
2018-03-17T12:13:59.828Z,12.62
2018-03-17T12:14:59.748Z,12.56
2018-03-17T12:15:59.675Z,12.59
2018-03-17T12:16:59.626Z,12.56
2018-03-17T12:17:59.528Z,12.47
2018-03-17T12:18:59.449Z,12.49
2018-03-17T12:19:59.377Z,12.47
2018-03-17T12:20:59.305Z,12.54
2018-03-17T12:21:59.235Z,12.53
2018-03-17T12:22:59.163Z,12.57
2018-03-17T12:23:59.088Z,12.62
2018-03-17T12:24:59.013Z,12.57
2018-03-17T12:25:58.968Z,12.64
2018-03-17T12:26:58.907Z,12.70
2018-03-17T12:27:58.829Z,12.72
2018-03-17T12:28:58.748Z,12.74
2018-03-17T12:29:58.693Z,12.72
2018-03-17T12:30:58.609Z,12.65
2018-03-17T12:31:58.538Z,12.70
2018-03-17T12:32:58.464Z,12.74
2018-03-17T12:33:58.439Z,12.62
2018-03-17T12:34:58.319Z,12.50
2018-03-17T12:35:58.240Z,12.53
2018-03-17T12:36:58.184Z,12.53
2018-03-17T12:37:58.099Z,12.59
2018-03-17T12:38:58.040Z,12.50
2018-03-17T12:39:57.969Z,12.54
2018-03-17T12:40:57.913Z,12.53
2018-03-17T12:41:57.808Z,12.64
2018-03-17T12:42:57.739Z,12.77
2018-03-17T12:43:57.741Z,12.82
2018-03-17T12:44:57.624Z,12.86
2018-03-17T12:45:57.544Z,12.87
2018-03-17T12:46:57.459Z,12.85
2018-03-17T12:47:57.389Z,12.95
2018-03-17T12:48:57.314Z,12.90
2018-03-17T12:49:57.291Z,12.93
2018-03-17T12:50:57.192Z,12.93
2018-03-17T12:51:57.120Z,13.05
2018-03-17T12:52:57.067Z,13.07
2018-03-17T12:53:56.976Z,13.05
2018-03-17T12:54:56.887Z,13.10
2018-03-17T12:55:56.836Z,13.10
2018-03-17T12:56:56.747Z,13.19
2018-03-17T12:57:56.702Z,13.17
2018-03-17T12:58:56.639Z,13.20
2018-03-17T12:59:56.553Z,13.22
2018-03-17T13:00:56.484Z,13.23
2018-03-17T13:01:56.414Z,13.11
2018-03-17T13:02:56.346Z,13.08
2018-03-17T13:03:56.254Z,13.11
2018-03-17T13:04:56.220Z,13.20
2018-03-17T13:05:56.133Z,13.08
2018-03-17T13:06:56.042Z,13.11
2018-03-17T13:07:56.017Z,13.07
2018-03-17T13:08:55.911Z,13.15
2018-03-17T13:09:55.828Z,13.20
2018-03-17T13:10:55.772Z,13.14
2018-03-17T13:11:55.694Z,13.04
2018-03-17T13:12:55.629Z,12.93
2018-03-17T13:13:55.565Z,12.93
2018-03-17T13:14:55.480Z,12.82
2018-03-17T13:15:55.420Z,12.92
2018-03-17T13:16:55.364Z,12.85
2018-03-17T13:17:55.289Z,12.89
2018-03-17T13:18:55.194Z,12.79
2018-03-17T13:19:55.128Z,12.79
2018-03-17T13:20:55.055Z,12.75
2018-03-17T13:21:54.998Z,12.82
2018-03-17T13:22:54.916Z,12.77
2018-03-17T13:23:54.846Z,12.72
2018-03-17T13:24:54.788Z,12.60
2018-03-17T13:25:54.715Z,12.57
2018-03-17T13:26:54.636Z,12.56
2018-03-17T13:27:54.570Z,12.49
2018-03-17T13:28:54.492Z,12.50
2018-03-17T13:29:54.441Z,12.53
2018-03-17T13:30:54.361Z,12.52
2018-03-17T13:31:54.278Z,12.53
2018-03-17T13:32:54.233Z,12.52
2018-03-17T13:33:54.134Z,12.52
2018-03-17T13:34:54.121Z,12.62
2018-03-17T13:35:54.009Z,12.60
2018-03-17T13:36:53.926Z,12.56
2018-03-17T13:37:53.856Z,12.64
2018-03-17T13:38:53.784Z,12.71
2018-03-17T13:39:53.712Z,12.67
2018-03-17T13:40:53.642Z,12.65
2018-03-17T13:41:53.576Z,12.65
2018-03-17T13:42:53.497Z,12.60
2018-03-17T13:43:53.457Z,12.62
2018-03-17T13:44:53.366Z,12.60
2018-03-17T13:45:53.311Z,12.72
2018-03-17T13:46:53.210Z,12.78
2018-03-17T13:47:53.150Z,12.71
2018-03-17T13:48:53.091Z,12.71
2018-03-17T13:49:53.003Z,12.68
2018-03-17T13:50:52.931Z,12.70
2018-03-17T13:51:52.868Z,12.68
2018-03-17T13:52:52.788Z,12.68
2018-03-17T13:53:52.731Z,12.72
2018-03-17T13:54:52.643Z,12.65
2018-03-17T13:55:52.605Z,12.65
2018-03-17T13:56:52.524Z,12.75
2018-03-17T13:57:52.429Z,12.78
2018-03-17T13:58:52.375Z,12.86
2018-03-17T13:59:52.294Z,12.86
2018-03-17T14:00:52.221Z,12.82
2018-03-17T14:01:52.148Z,12.89
2018-03-17T14:02:57.129Z,12.87
2018-03-17T14:03:56.947Z,12.86
2018-03-17T14:05:52.246Z,12.96
2018-03-17T14:06:52.118Z,13.08
2018-03-17T14:08:47.423Z,13.07
2018-03-17T14:09:47.297Z,13.22
2018-03-17T14:11:42.821Z,13.12
2018-03-17T14:12:42.450Z,13.29
2018-03-17T14:14:37.803Z,13.36
2018-03-17T14:15:37.685Z,13.28
2018-03-17T14:17:33.825Z,13.32
2018-03-17T14:18:33.702Z,13.30
2018-03-17T14:20:29.007Z,13.29
2018-03-17T14:21:28.920Z,13.36
2018-03-17T14:23:24.163Z,13.38
2018-03-17T14:24:24.068Z,13.42
2018-03-17T14:26:19.368Z,13.45
2018-03-17T14:27:19.242Z,13.19
2018-03-17T14:29:14.644Z,12.97
2018-03-17T14:30:14.473Z,12.82
2018-03-17T14:32:09.687Z,12.49
2018-03-17T14:33:09.603Z,12.53
2018-03-17T14:35:05.756Z,12.65
2018-03-17T14:36:05.658Z,12.62
2018-03-17T14:38:01.065Z,12.70
2018-03-17T14:39:00.927Z,12.82
2018-03-17T14:40:56.154Z,12.83
2018-03-17T14:41:56.051Z,12.90
2018-03-17T14:43:51.333Z,13.01
2018-03-17T14:44:51.211Z,12.87
2018-03-17T14:46:46.461Z,12.97
2018-03-17T14:47:46.358Z,13.03
2018-03-17T14:49:42.547Z,12.93
2018-03-17T14:50:42.439Z,13.05
2018-03-17T14:52:37.692Z,13.10
2018-03-17T14:53:37.625Z,13.08
2018-03-17T14:55:32.918Z,13.25
2018-03-17T14:56:32.808Z,13.26
2018-03-17T14:58:28.868Z,13.12
2018-03-17T14:59:28.819Z,13.28
2018-03-17T15:01:24.078Z,13.30
2018-03-17T15:02:23.997Z,13.30
2018-03-17T15:04:19.279Z,13.42
2018-03-17T15:05:19.152Z,13.46
2018-03-17T15:07:14.466Z,13.55
2018-03-17T15:08:14.350Z,13.62
2018-03-17T15:10:09.643Z,13.77
2018-03-17T15:11:09.532Z,13.87
2018-03-17T15:13:04.854Z,13.84
2018-03-17T15:14:04.742Z,13.82
2018-03-17T15:16:00.017Z,13.88
2018-03-17T15:16:59.922Z,13.95
2018-03-17T15:18:55.221Z,13.95
2018-03-17T15:19:55.149Z,13.89
2018-03-17T15:21:50.384Z,13.92
2018-03-17T15:22:50.299Z,13.91
2018-03-17T15:24:45.578Z,13.82
2018-03-17T15:25:45.453Z,13.75
2018-03-17T15:27:40.775Z,13.57
2018-03-17T15:28:40.673Z,13.52
2018-03-17T15:30:35.959Z,13.42
2018-03-17T15:31:35.852Z,13.36
2018-03-17T15:33:31.136Z,13.22
2018-03-17T15:34:31.059Z,13.23
2018-03-17T15:36:26.383Z,13.17
2018-03-17T15:37:26.236Z,13.26
2018-03-17T15:38:26.164Z,13.29
2018-03-17T15:39:26.120Z,13.25
2018-03-17T15:40:26.066Z,13.15
2018-03-17T15:41:25.969Z,13.14
2018-03-17T15:42:25.904Z,13.17
2018-03-17T15:43:25.831Z,13.22
2018-03-17T15:44:25.767Z,13.28
2018-03-17T15:45:25.681Z,13.19
2018-03-17T15:46:25.624Z,13.20
2018-03-17T15:47:25.564Z,13.22
2018-03-17T15:48:25.458Z,13.26
2018-03-17T15:49:25.392Z,13.23
2018-03-17T15:50:25.339Z,13.20
2018-03-17T15:51:25.277Z,13.26
2018-03-17T15:52:25.182Z,13.07
2018-03-17T15:53:25.133Z,13.14
2018-03-17T15:54:25.110Z,13.08
2018-03-17T15:55:24.988Z,13.07
2018-03-17T15:56:24.906Z,13.04
2018-03-17T15:57:24.838Z,13.08
2018-03-17T15:58:24.764Z,13.07
2018-03-17T15:59:24.698Z,13.07
2018-03-17T16:00:24.626Z,12.92
2018-03-17T16:01:24.573Z,13.00
2018-03-17T16:02:24.477Z,13.05
2018-03-17T16:03:24.437Z,12.93
2018-03-17T16:04:24.360Z,13.04
2018-03-17T16:05:24.342Z,12.96
2018-03-17T16:06:24.282Z,12.96
2018-03-17T16:07:24.151Z,12.97
2018-03-17T16:08:24.091Z,13.05
2018-03-17T16:09:23.996Z,13.08
2018-03-17T16:10:23.924Z,13.17
2018-03-17T16:11:23.875Z,13.04
2018-03-17T16:12:23.779Z,12.93
2018-03-17T16:13:23.704Z,12.67
2018-03-17T16:14:23.645Z,12.56
2018-03-17T16:15:23.587Z,12.19
2018-03-17T16:16:23.494Z,12.09
2018-03-17T16:17:23.429Z,11.98
2018-03-17T16:18:23.354Z,12.09
2018-03-17T16:19:23.284Z,12.07
2018-03-17T16:20:23.212Z,12.10
2018-03-17T16:21:23.165Z,11.98
2018-03-17T16:22:23.079Z,11.83
2018-03-17T16:23:23.015Z,11.83
2018-03-17T16:24:22.939Z,11.80
2018-03-17T16:25:22.873Z,11.90
2018-03-17T16:26:22.802Z,11.98
2018-03-17T16:27:22.738Z,11.99
2018-03-17T16:28:22.675Z,12.01
2018-03-17T16:29:22.587Z,12.10
2018-03-17T16:30:22.517Z,12.07
2018-03-17T16:31:22.441Z,12.07
2018-03-17T16:32:22.375Z,12.16
2018-03-17T16:33:22.284Z,12.13
2018-03-17T16:34:22.241Z,12.29
2018-03-17T16:35:22.144Z,12.41
2018-03-17T16:36:22.077Z,12.52
2018-03-17T16:37:22.022Z,12.60
2018-03-17T16:38:21.930Z,12.56
2018-03-17T16:39:21.879Z,12.57
2018-03-17T16:40:21.790Z,12.59
2018-03-17T16:41:21.759Z,12.65
2018-03-17T16:42:21.652Z,12.74
2018-03-17T16:43:21.614Z,12.85
2018-03-17T16:44:21.510Z,12.86
2018-03-17T16:45:21.483Z,12.97
2018-03-17T16:46:21.371Z,12.89
2018-03-17T16:47:21.296Z,13.01
2018-03-17T16:48:21.220Z,13.04
2018-03-17T16:49:21.169Z,12.86
2018-03-17T16:50:21.092Z,12.90
2018-03-17T16:51:21.057Z,12.92
2018-03-17T16:52:20.947Z,12.89
2018-03-17T16:53:20.887Z,12.83
2018-03-17T16:54:20.822Z,12.72
2018-03-17T16:55:20.733Z,12.70
2018-03-17T16:56:20.678Z,12.62
2018-03-17T16:57:20.595Z,12.64
2018-03-17T16:58:20.549Z,12.50
2018-03-17T16:59:20.445Z,12.42
2018-03-17T17:00:20.380Z,12.41
2018-03-17T17:01:20.332Z,12.45
2018-03-17T17:02:20.249Z,12.39
2018-03-17T17:03:20.241Z,12.42
2018-03-17T17:04:20.154Z,12.41
2018-03-17T17:05:20.064Z,12.37
2018-03-17T17:06:19.990Z,12.39
2018-03-17T17:07:19.911Z,12.41
2018-03-17T17:08:19.828Z,12.42
2018-03-17T17:09:19.766Z,12.39
2018-03-17T17:10:19.685Z,12.39
2018-03-17T17:11:19.672Z,12.42
2018-03-17T17:12:19.639Z,12.37
2018-03-17T17:13:19.555Z,12.28
2018-03-17T17:14:19.387Z,12.29
2018-03-17T17:15:19.339Z,12.31
2018-03-17T17:16:19.246Z,12.38
2018-03-17T17:17:19.193Z,12.41
2018-03-17T17:18:19.111Z,12.23
2018-03-17T17:19:19.042Z,12.19
2018-03-17T17:20:18.968Z,12.28
2018-03-17T17:21:18.919Z,12.27
2018-03-17T17:22:18.842Z,12.20
2018-03-17T17:23:18.832Z,12.19
2018-03-17T17:24:18.709Z,12.14
2018-03-17T17:25:18.612Z,12.24
2018-03-17T17:26:18.553Z,12.19
2018-03-17T17:27:18.462Z,12.28
2018-03-17T17:28:18.461Z,12.37
2018-03-17T17:29:18.329Z,12.38
2018-03-17T17:30:18.282Z,12.42
2018-03-17T17:31:18.196Z,12.35
2018-03-17T17:32:18.114Z,12.37
2018-03-17T17:33:18.039Z,12.46
2018-03-17T17:34:17.970Z,12.47
2018-03-17T17:35:17.897Z,12.28
2018-03-17T17:36:17.822Z,12.20
2018-03-17T17:37:17.758Z,12.16
2018-03-17T17:38:17.702Z,12.17
2018-03-17T17:39:17.620Z,12.20
2018-03-17T17:40:17.657Z,11.98
2018-03-17T17:41:17.522Z,11.86
2018-03-17T17:42:17.428Z,11.76
2018-03-17T17:43:17.344Z,11.76
2018-03-17T17:44:17.274Z,11.65
2018-03-17T17:45:17.200Z,11.72
2018-03-17T17:46:17.131Z,11.57
2018-03-17T17:47:17.067Z,11.46
2018-03-17T17:48:16.985Z,11.44
2018-03-17T17:49:16.909Z,11.33
2018-03-17T17:50:16.830Z,11.44
2018-03-17T17:51:16.766Z,11.43
2018-03-17T17:52:16.681Z,11.32
2018-03-17T17:53:16.612Z,11.39
2018-03-17T17:54:16.555Z,11.39
2018-03-17T17:55:16.493Z,11.39
2018-03-17T17:56:16.417Z,11.39
2018-03-17T17:57:16.342Z,11.33
2018-03-17T17:58:16.306Z,11.40
2018-03-17T17:59:16.208Z,11.40
2018-03-17T18:00:19.863Z,11.46
2018-03-17T18:01:16.051Z,11.42
2018-03-17T18:02:15.982Z,11.39
2018-03-17T18:03:15.904Z,11.43
2018-03-17T18:04:15.831Z,11.40
2018-03-17T18:05:15.765Z,11.44
2018-03-17T18:06:15.697Z,11.42
2018-03-17T18:07:15.618Z,11.44
2018-03-17T18:08:15.534Z,11.40
2018-03-17T18:09:15.456Z,11.42
2018-03-17T18:10:15.442Z,11.36
2018-03-17T18:11:15.367Z,11.21
2018-03-17T18:12:15.267Z,11.27
2018-03-17T18:13:15.176Z,11.19
2018-03-17T18:14:15.099Z,11.36
2018-03-17T18:15:15.022Z,11.32
2018-03-17T18:16:14.975Z,11.28
2018-03-17T18:17:14.901Z,11.15
2018-03-17T18:18:14.816Z,11.11
2018-03-17T18:19:14.756Z,11.11
2018-03-17T18:20:14.684Z,11.09
2018-03-17T18:21:14.597Z,11.18
2018-03-17T18:22:14.522Z,11.21
2018-03-17T18:23:14.472Z,11.24
2018-03-17T18:24:14.380Z,11.19
2018-03-17T18:25:14.365Z,11.21
2018-03-17T18:26:14.270Z,11.19
2018-03-17T18:27:14.166Z,11.24
2018-03-17T18:28:14.107Z,11.24
2018-03-17T18:29:14.022Z,11.28
2018-03-17T18:30:14.005Z,11.27
2018-03-17T18:31:13.892Z,11.29
2018-03-17T18:32:13.806Z,11.35
2018-03-17T18:33:13.734Z,11.43
2018-03-17T18:34:13.668Z,11.39
2018-03-17T18:35:13.606Z,11.49
2018-03-17T18:36:13.525Z,11.43
2018-03-17T18:37:13.448Z,11.54
2018-03-17T18:38:13.377Z,11.60
2018-03-17T18:39:13.315Z,11.54
2018-03-17T18:40:13.257Z,11.61
2018-03-17T18:41:13.245Z,11.58
2018-03-17T18:42:13.105Z,11.57
2018-03-17T18:43:13.009Z,11.47
2018-03-17T18:44:12.942Z,11.49
2018-03-17T18:45:12.870Z,11.47
2018-03-17T18:46:12.810Z,11.49
2018-03-17T18:47:12.738Z,11.46
2018-03-17T18:48:12.657Z,11.36
2018-03-17T18:49:12.585Z,11.43
2018-03-17T18:50:12.514Z,11.39
2018-03-17T18:51:12.449Z,11.42
2018-03-17T18:52:12.372Z,11.52
2018-03-17T18:53:12.292Z,11.42
2018-03-17T18:54:12.224Z,11.42
2018-03-17T18:55:12.150Z,11.51
2018-03-17T18:56:12.100Z,11.49
2018-03-17T18:57:12.010Z,11.54
2018-03-17T18:58:11.950Z,11.49
2018-03-17T18:59:11.867Z,11.49
2018-03-17T19:00:11.797Z,11.58
2018-03-17T19:01:11.737Z,11.55
2018-03-17T19:02:11.698Z,11.54
2018-03-17T19:03:11.768Z,11.42
2018-03-17T19:04:11.511Z,11.46
2018-03-17T19:05:11.476Z,11.47
2018-03-17T19:06:11.386Z,11.44
2018-03-17T19:07:11.301Z,11.60
2018-03-17T19:08:11.217Z,11.49
2018-03-17T19:09:11.176Z,11.60
2018-03-17T19:10:11.144Z,11.57
2018-03-17T19:11:11.003Z,11.49
2018-03-17T19:12:10.946Z,11.60
2018-03-17T19:13:10.864Z,11.60
2018-03-17T19:14:10.816Z,11.65
2018-03-17T19:15:10.718Z,11.47
2018-03-17T19:16:10.662Z,11.54
2018-03-17T19:17:10.588Z,11.51
2018-03-17T19:18:10.515Z,11.47
2018-03-17T19:19:10.448Z,11.55
2018-03-17T19:20:10.364Z,11.49
2018-03-17T19:21:10.286Z,11.43
2018-03-17T19:22:10.242Z,11.49
2018-03-17T19:23:10.138Z,11.61
2018-03-17T19:24:10.097Z,11.60
2018-03-17T19:25:10.004Z,11.51
2018-03-17T19:26:09.945Z,11.49
2018-03-17T19:27:09.856Z,11.54
2018-03-17T19:28:09.800Z,11.46
2018-03-17T19:29:09.713Z,11.52
2018-03-17T19:30:09.659Z,11.44
2018-03-17T19:31:09.598Z,11.44
2018-03-17T19:32:09.502Z,11.46
2018-03-17T19:33:09.422Z,11.46
2018-03-17T19:34:09.349Z,11.44
2018-03-17T19:35:09.291Z,11.42
2018-03-17T19:36:09.205Z,11.40
2018-03-17T19:37:09.163Z,11.36
2018-03-17T19:38:09.081Z,11.22
2018-03-17T19:39:09.007Z,11.22
2018-03-17T19:40:08.923Z,11.19
2018-03-17T19:41:08.875Z,11.19
2018-03-17T19:42:08.792Z,11.17
2018-03-17T19:43:08.734Z,11.24
2018-03-17T19:44:08.637Z,11.24
2018-03-17T19:45:08.560Z,11.24
2018-03-17T19:46:08.522Z,11.28
2018-03-17T19:47:08.437Z,11.33
2018-03-17T19:48:08.374Z,11.36
2018-03-17T19:49:08.274Z,11.35
2018-03-17T19:50:08.219Z,11.43
2018-03-17T19:51:08.151Z,11.46
2018-03-17T19:52:08.056Z,11.40
2018-03-17T19:53:07.993Z,11.33
2018-03-17T19:54:07.920Z,11.42
2018-03-17T19:55:07.861Z,11.39
2018-03-17T19:56:07.788Z,11.43
2018-03-17T19:57:07.710Z,11.43
2018-03-17T19:58:07.623Z,11.39
2018-03-17T19:59:07.552Z,11.39
2018-03-17T20:00:07.516Z,11.39
2018-03-17T20:01:07.435Z,11.39
2018-03-17T20:02:07.343Z,11.44
2018-03-17T20:03:07.295Z,11.42
2018-03-17T20:04:07.203Z,11.33
2018-03-17T20:05:07.152Z,11.24
2018-03-17T20:06:07.072Z,11.25
2018-03-17T20:07:07.000Z,11.17
2018-03-17T20:08:06.910Z,11.15
2018-03-17T20:09:06.857Z,11.03
2018-03-17T20:10:06.776Z,10.91
2018-03-17T20:11:06.692Z,10.94
2018-03-17T20:12:06.626Z,10.97
2018-03-17T20:13:06.567Z,10.96
2018-03-17T20:14:06.512Z,10.96
2018-03-17T20:15:06.438Z,10.82
2018-03-17T20:16:06.360Z,10.96
2018-03-17T20:17:06.261Z,10.94
2018-03-17T20:18:06.205Z,10.85
2018-03-17T20:19:06.150Z,10.86
2018-03-17T20:20:06.060Z,10.89
2018-03-17T20:21:05.976Z,10.97
2018-03-17T20:22:05.917Z,10.70
2018-03-17T20:23:05.837Z,10.84
2018-03-17T20:24:05.780Z,10.82
2018-03-17T20:25:05.684Z,10.85
2018-03-17T20:26:05.617Z,10.89
2018-03-17T20:27:05.571Z,10.88
2018-03-17T20:28:05.470Z,10.86
2018-03-17T20:29:05.407Z,10.82
2018-03-17T20:30:05.350Z,10.73
2018-03-17T20:31:05.278Z,10.82
2018-03-17T20:32:05.203Z,10.68
2018-03-17T20:33:05.152Z,10.82
2018-03-17T20:34:05.067Z,10.91
2018-03-17T20:35:04.980Z,10.86
2018-03-17T20:36:04.896Z,10.79
2018-03-17T20:37:04.843Z,10.96
2018-03-17T20:38:04.751Z,10.81
2018-03-17T20:39:04.676Z,10.85
2018-03-17T20:40:04.611Z,10.85
2018-03-17T20:41:04.540Z,10.70
2018-03-17T20:42:04.468Z,10.70
2018-03-17T20:43:04.410Z,10.67
2018-03-17T20:44:04.354Z,10.63
2018-03-17T20:45:04.266Z,10.59
2018-03-17T20:46:04.208Z,10.60
2018-03-17T20:47:04.102Z,10.68
2018-03-17T20:48:04.025Z,10.56
2018-03-17T20:49:03.976Z,10.59
2018-03-17T20:50:03.917Z,10.73
2018-03-17T20:51:03.819Z,10.66
2018-03-17T20:52:03.774Z,10.73
2018-03-17T20:53:03.689Z,10.67
2018-03-17T20:54:03.619Z,10.66
2018-03-17T20:55:03.536Z,10.59
2018-03-17T20:56:03.470Z,10.59
2018-03-17T20:57:03.378Z,10.60
2018-03-17T20:58:03.396Z,10.56
2018-03-17T20:59:03.244Z,10.61
2018-03-17T21:00:03.205Z,10.70
2018-03-17T21:01:03.099Z,10.70
2018-03-17T21:02:03.130Z,10.70
2018-03-17T21:03:02.954Z,10.82
2018-03-17T21:04:02.912Z,10.81
2018-03-17T21:05:02.802Z,10.68
2018-03-17T21:06:02.769Z,10.70
2018-03-17T21:07:02.660Z,10.66
2018-03-17T21:08:02.609Z,10.68
2018-03-17T21:09:02.516Z,10.66
2018-03-17T21:10:02.444Z,10.71
2018-03-17T21:11:02.469Z,10.68
2018-03-17T21:12:02.299Z,10.66
2018-03-17T21:13:02.279Z,10.61
2018-03-17T21:14:02.185Z,10.42
2018-03-17T21:15:02.086Z,10.52
2018-03-17T21:16:02.032Z,10.48
2018-03-17T21:17:01.983Z,10.44
2018-03-17T21:18:01.885Z,10.41
2018-03-17T21:19:01.799Z,10.29
2018-03-17T21:20:01.727Z,10.44
2018-03-17T21:21:01.648Z,10.33
2018-03-17T21:22:01.576Z,10.38
2018-03-17T21:23:01.520Z,10.40
2018-03-17T21:24:01.430Z,10.27
2018-03-17T21:25:01.363Z,10.29
2018-03-17T21:26:01.282Z,10.25
2018-03-17T21:27:01.252Z,10.29
2018-03-17T21:28:01.216Z,10.27
2018-03-17T21:29:01.237Z,10.41
2018-03-17T21:30:01.017Z,10.34
2018-03-17T21:31:00.954Z,10.33
2018-03-17T21:32:00.862Z,10.40
2018-03-17T21:33:00.817Z,10.42
2018-03-17T21:34:00.710Z,10.38
2018-03-17T21:35:00.670Z,10.44
2018-03-17T21:36:00.562Z,10.40
2018-03-17T21:37:00.492Z,10.40
2018-03-17T21:38:00.435Z,10.38
2018-03-17T21:39:00.352Z,10.34
2018-03-17T21:40:00.272Z,10.34
2018-03-17T21:41:00.202Z,10.40
2018-03-17T21:42:00.144Z,10.38
2018-03-17T21:43:00.072Z,10.60
2018-03-17T21:44:00.009Z,10.48
2018-03-17T21:44:59.937Z,10.52
2018-03-17T21:45:59.838Z,10.55
2018-03-17T21:46:59.777Z,10.47
2018-03-17T21:47:59.698Z,10.45
2018-03-17T21:48:59.629Z,10.55
2018-03-17T21:49:59.561Z,10.52
2018-03-17T21:50:59.476Z,10.51
2018-03-17T21:51:59.452Z,10.51
2018-03-17T21:52:59.346Z,10.44
2018-03-17T21:53:59.296Z,10.56
2018-03-17T21:54:59.188Z,10.60
2018-03-17T21:55:59.129Z,10.70
2018-03-17T21:56:59.045Z,10.67
2018-03-17T21:57:58.982Z,10.71
2018-03-17T21:58:58.971Z,10.59
2018-03-17T21:59:58.837Z,10.56
2018-03-17T22:00:58.779Z,10.56
2018-03-17T22:01:58.691Z,10.51
2018-03-17T22:02:58.607Z,10.48
2018-03-17T22:03:58.553Z,10.53
2018-03-17T22:04:58.481Z,10.42
2018-03-17T22:05:58.429Z,10.52
2018-03-17T22:06:58.335Z,10.52
2018-03-17T22:07:58.267Z,10.55
2018-03-17T22:08:58.180Z,10.55
2018-03-17T22:09:58.105Z,10.59
2018-03-17T22:10:58.028Z,10.59
2018-03-17T22:11:57.979Z,10.67
2018-03-17T22:12:57.904Z,10.60
2018-03-17T22:13:57.824Z,10.63
2018-03-17T22:14:57.762Z,10.63
2018-03-17T22:15:57.664Z,10.70
2018-03-17T22:16:57.596Z,10.56
2018-03-17T22:17:57.523Z,10.73
2018-03-17T22:18:57.466Z,10.59
2018-03-17T22:19:57.391Z,10.47
2018-03-17T22:20:57.317Z,10.61
2018-03-17T22:21:57.235Z,10.53
2018-03-17T22:22:57.173Z,10.52
2018-03-17T22:23:57.104Z,10.52
2018-03-17T22:24:57.013Z,10.44
2018-03-17T22:25:56.966Z,10.51
2018-03-17T22:26:56.869Z,10.56
2018-03-17T22:27:56.805Z,10.45
2018-03-17T22:28:56.773Z,10.51
2018-03-17T22:29:56.888Z,10.47
2018-03-17T22:30:56.588Z,10.56
2018-03-17T22:31:56.552Z,10.52
2018-03-17T22:32:56.453Z,10.51
2018-03-17T22:33:56.379Z,10.60
2018-03-17T22:34:56.307Z,10.59
2018-03-17T22:35:56.236Z,10.59
2018-03-17T22:36:56.165Z,10.60